createdAt,value
2018-05-11T00:01:04.864Z,4.17
2018-05-11T00:03:30.839Z,5.07
2018-05-11T00:05:56.779Z,4.37
2018-05-11T00:08:22.753Z,4.40
2018-05-11T00:10:48.733Z,4.70
2018-05-11T00:13:14.726Z,4.27
2018-05-11T00:15:40.677Z,4.25
2018-05-11T00:18:06.643Z,4.80
2018-05-11T00:20:32.615Z,4.40
2018-05-11T00:22:58.588Z,4.60
2018-05-11T00:25:24.566Z,4.45
2018-05-11T00:27:50.529Z,5.27
2018-05-11T00:30:17.231Z,4.83
2018-05-11T00:32:43.189Z,4.30
2018-05-11T00:35:09.951Z,5.00
2018-05-11T00:37:35.895Z,4.82
2018-05-11T00:40:01.839Z,4.47
2018-05-11T00:42:27.807Z,4.73
2018-05-11T00:44:53.811Z,4.60
2018-05-11T00:47:19.771Z,5.20
2018-05-11T00:49:45.743Z,4.90
2018-05-11T00:52:11.710Z,5.57
2018-05-11T00:54:37.666Z,4.30
2018-05-11T00:57:03.649Z,4.43
2018-05-11T00:59:29.601Z,4.50
2018-05-11T01:01:55.586Z,4.47
2018-05-11T01:04:21.530Z,4.50
2018-05-11T01:06:47.518Z,4.13
2018-05-11T01:09:14.219Z,4.25
2018-05-11T01:11:40.194Z,4.50
2018-05-11T01:14:06.177Z,4.37
2018-05-11T01:16:32.138Z,4.87
2018-05-11T01:18:58.110Z,5.23
2018-05-11T01:21:24.079Z,5.67
2018-05-11T01:23:50.050Z,5.27
2018-05-11T01:26:16.009Z,4.77
2018-05-11T01:28:42.723Z,5.17
2018-05-11T01:31:08.671Z,4.93
2018-05-11T01:33:35.382Z,5.50
2018-05-11T01:36:01.315Z,5.05
2018-05-11T01:38:27.271Z,5.87
2018-05-11T01:40:53.210Z,5.03
2018-05-11T01:43:19.173Z,5.23
2018-05-11T01:45:45.119Z,5.87
2018-05-11T01:48:11.842Z,4.70
2018-05-11T01:50:37.805Z,4.75
2018-05-11T01:53:03.764Z,4.87
2018-05-11T01:55:29.726Z,5.63
2018-05-11T01:57:55.682Z,5.60
2018-05-11T02:00:21.657Z,5.20
2018-05-11T02:02:48.340Z,4.80
2018-05-11T02:05:14.333Z,5.50
2018-05-11T02:07:41.041Z,4.85
2018-05-11T02:10:07.019Z,5.37
2018-05-11T02:12:32.983Z,5.62
2018-05-11T02:14:58.962Z,5.40
2018-05-11T02:17:24.928Z,6.40
2018-05-11T02:19:50.878Z,5.67
2018-05-11T02:22:17.581Z,6.40
2018-05-11T02:24:43.554Z,5.18
2018-05-11T02:27:09.502Z,6.15
2018-05-11T02:29:35.450Z,5.50
2018-05-11T02:32:01.403Z,6.00
2018-05-11T02:34:28.090Z,5.30
2018-05-11T02:36:54.051Z,6.47
2018-05-11T02:39:20.006Z,5.77
2018-05-11T02:41:45.970Z,5.50
2018-05-11T02:44:11.931Z,7.55
2018-05-11T02:46:38.621Z,6.63
2018-05-11T02:49:04.587Z,6.40
2018-05-11T02:51:31.294Z,6.23
2018-05-11T02:53:57.263Z,6.78
2018-05-11T02:56:23.212Z,6.40
2018-05-11T02:58:49.184Z,7.13
2018-05-11T03:01:15.873Z,6.75
2018-05-11T03:03:41.844Z,6.07
2018-05-11T03:06:08.533Z,6.62
2018-05-11T03:08:34.538Z,6.50
2018-05-11T03:11:00.485Z,6.72
2018-05-11T03:13:26.434Z,6.60
2018-05-11T03:15:52.401Z,7.10
2018-05-11T03:18:18.393Z,6.83
2018-05-11T03:20:44.367Z,7.60
2018-05-11T03:23:10.307Z,7.18
2018-05-11T03:25:36.284Z,7.10
2018-05-11T03:28:02.242Z,7.75
2018-05-11T03:30:28.215Z,8.00
2018-05-11T03:32:54.924Z,8.65
2018-05-11T03:35:20.890Z,8.27
2018-05-11T03:37:46.870Z,6.90
2018-05-11T03:40:12.840Z,6.95
2018-05-11T03:42:38.793Z,7.30
2018-05-11T03:45:04.762Z,7.60
2018-05-11T03:47:31.467Z,7.10
2018-05-11T03:49:57.449Z,6.93
2018-05-11T03:52:23.390Z,6.85
2018-05-11T03:54:49.358Z,6.23
2018-05-11T03:57:15.327Z,8.33
2018-05-11T03:59:41.279Z,6.93
2018-05-11T04:02:07.256Z,6.93
2018-05-11T04:04:33.211Z,6.87
2018-05-11T04:06:59.190Z,6.93
2018-05-11T04:09:25.936Z,7.37
2018-05-11T04:11:52.615Z,6.80
2018-05-11T04:14:18.593Z,6.82
2018-05-11T04:16:45.322Z,7.97
2018-05-11T04:19:11.315Z,7.60
2018-05-11T04:21:37.291Z,6.47
2018-05-11T04:24:03.226Z,6.87
2018-05-11T04:26:29.193Z,6.83
2018-05-11T04:28:55.162Z,7.00
2018-05-11T04:31:21.133Z,7.10
2018-05-11T04:33:47.082Z,6.95
2018-05-11T04:36:13.824Z,7.63
2018-05-11T04:38:40.511Z,7.15
2018-05-11T04:41:06.463Z,7.78
2018-05-11T04:43:32.419Z,6.60
2018-05-11T04:45:58.396Z,7.33
2018-05-11T04:48:24.338Z,7.20
2018-05-11T04:50:50.302Z,7.47
2018-05-11T04:53:16.301Z,7.55
2018-05-11T04:55:43.000Z,8.38
2018-05-11T04:58:08.990Z,9.32
2018-05-11T05:00:34.977Z,8.40
2018-05-11T05:03:01.679Z,8.90
2018-05-11T05:05:27.614Z,8.65
2018-05-11T05:07:53.615Z,8.07
2018-05-11T05:10:19.570Z,7.85
2018-05-11T05:12:45.511Z,8.30
2018-05-11T05:15:12.270Z,9.10
2018-05-11T05:17:38.235Z,7.97
2018-05-11T05:20:04.183Z,7.70
2018-05-11T05:22:30.146Z,8.00
2018-05-11T05:24:56.118Z,7.40
2018-05-11T05:27:22.078Z,8.53
2018-05-11T05:29:48.038Z,7.80
2018-05-11T05:32:13.999Z,7.33
2018-05-11T05:34:39.979Z,7.77
2018-05-11T05:37:05.922Z,8.40
2018-05-11T05:39:31.867Z,7.87
2018-05-11T05:41:58.586Z,9.07
2018-05-11T05:44:24.536Z,8.10
2018-05-11T05:46:50.487Z,7.40
2018-05-11T05:49:16.475Z,7.60
2018-05-11T05:51:43.199Z,7.30
2018-05-11T05:54:09.199Z,7.40
2018-05-11T05:56:35.154Z,7.65
2018-05-11T05:59:01.848Z,8.33
2018-05-11T06:01:27.822Z,10.10
2018-05-11T06:03:54.503Z,8.17
2018-05-11T06:06:20.455Z,8.15
2018-05-11T06:08:46.421Z,8.10
2018-05-11T06:11:12.395Z,7.60
2018-05-11T06:13:38.379Z,7.45
2018-05-11T06:16:04.347Z,7.90
2018-05-11T06:18:30.291Z,7.93
2018-05-11T06:20:57.041Z,7.70
2018-05-11T06:23:22.997Z,8.23
2018-05-11T06:25:48.958Z,9.20
2018-05-11T06:28:14.927Z,7.63
2018-05-11T06:30:40.885Z,8.00
2018-05-11T06:33:06.858Z,9.23
2018-05-11T06:35:32.828Z,9.30
2018-05-11T06:37:58.809Z,8.47
2018-05-11T06:40:24.812Z,9.45
2018-05-11T06:42:51.519Z,8.55
2018-05-11T06:45:17.465Z,8.13
2018-05-11T06:47:44.146Z,9.03
2018-05-11T06:50:10.180Z,8.68
2018-05-11T06:52:36.122Z,8.10
2018-05-11T06:55:02.114Z,6.90
2018-05-11T06:57:28.056Z,7.57
2018-05-11T06:59:54.039Z,7.63
2018-05-11T07:02:19.974Z,7.65
2018-05-11T07:04:45.942Z,7.77
2018-05-11T07:07:11.897Z,8.23
2018-05-11T07:09:38.607Z,9.03
2018-05-11T07:12:04.559Z,8.57
2018-05-11T07:14:30.567Z,7.60
2018-05-11T07:16:57.254Z,8.48
2018-05-11T07:19:23.251Z,8.07
2018-05-11T07:21:49.939Z,8.53
2018-05-11T07:24:15.875Z,8.50
2018-05-11T07:26:41.854Z,9.50
2018-05-11T07:29:07.790Z,9.60
2018-05-11T07:31:33.759Z,9.20
2018-05-11T07:33:59.722Z,8.77
2018-05-11T07:36:25.688Z,9.73
2018-05-11T07:38:52.374Z,10.73
2018-05-11T07:41:18.340Z,10.55
2018-05-11T07:43:44.330Z,10.20
2018-05-11T07:46:10.313Z,11.50
2018-05-11T07:48:36.270Z,10.57
2018-05-11T07:51:02.264Z,11.83
2018-05-11T07:53:28.222Z,12.75
2018-05-11T07:55:54.151Z,13.93
2018-05-11T07:58:20.162Z,13.33
2018-05-11T08:00:46.180Z,11.93
2018-05-11T08:03:12.160Z,13.85
2018-05-11T08:05:38.868Z,13.55
2018-05-11T08:08:04.858Z,14.57
2018-05-11T08:10:30.823Z,13.77
2018-05-11T08:12:56.787Z,14.10
2018-05-11T08:15:22.758Z,15.73
2018-05-11T08:17:48.772Z,15.37
2018-05-11T08:20:14.750Z,15.15
2018-05-11T08:22:41.301Z,15.40
2018-05-11T08:25:07.439Z,17.40
2018-05-11T08:27:33.390Z,16.30
2018-05-11T08:29:59.371Z,16.57
2018-05-11T08:32:25.324Z,16.57
2018-05-11T08:34:51.311Z,21.67
2018-05-11T08:37:18.192Z,16.58
2018-05-11T08:39:44.150Z,17.80
2018-05-11T08:42:10.835Z,18.53
2018-05-11T08:44:36.810Z,17.70
2018-05-11T08:47:03.494Z,15.77
2018-05-11T08:49:29.462Z,17.12
2018-05-11T08:51:55.424Z,16.53
2018-05-11T08:54:21.398Z,16.13
2018-05-11T08:56:47.360Z,15.50
2018-05-11T08:59:13.365Z,16.13
2018-05-11T09:01:40.055Z,14.23
2018-05-11T09:04:06.012Z,15.82
2018-05-11T09:06:31.982Z,15.50
2018-05-11T09:08:57.963Z,13.97
2018-05-11T09:11:24.683Z,15.87
2018-05-11T09:13:50.663Z,15.77
2018-05-11T09:16:16.634Z,14.13
2018-05-11T09:18:42.580Z,14.57
2018-05-11T09:21:09.306Z,15.60
2018-05-11T09:23:35.514Z,15.20
2018-05-11T09:26:01.795Z,16.20
2018-05-11T09:28:27.833Z,14.98
2018-05-11T09:30:53.842Z,16.60
2018-05-11T09:33:19.797Z,16.40
2018-05-11T09:35:45.777Z,16.17
2018-05-11T09:38:11.816Z,16.53
2018-05-11T09:40:37.791Z,15.57
2018-05-11T09:43:03.787Z,16.17
2018-05-11T09:45:29.756Z,15.97
2018-05-11T09:47:56.482Z,15.93
2018-05-11T09:50:22.462Z,16.30
2018-05-11T09:52:48.540Z,16.07
2018-05-11T09:55:14.588Z,16.55
2018-05-11T09:57:40.631Z,15.57
2018-05-11T10:00:06.603Z,16.62
2018-05-11T10:02:32.580Z,17.27
2018-05-11T10:04:58.598Z,15.73
2018-05-11T10:07:24.663Z,17.80
2018-05-11T10:09:51.075Z,16.25
2018-05-11T10:12:17.279Z,15.30
2018-05-11T10:14:43.882Z,15.90
2018-05-11T10:17:14.716Z,16.20
2018-05-11T10:19:45.724Z,12.18
2018-05-11T10:22:16.122Z,13.38
2018-05-11T10:24:45.689Z,11.48
2018-05-11T10:27:32.926Z,12.90
2018-05-11T10:30:13.088Z,12.35
2018-05-11T10:32:42.829Z,12.57
2018-05-11T10:41:32.695Z,13.02
2018-05-11T10:44:03.528Z,13.43
2018-05-11T11:01:46.407Z,12.02
2018-05-11T11:28:52.467Z,12.10
2018-05-11T11:31:18.515Z,12.90
2018-05-11T11:33:45.934Z,13.13
2018-05-11T11:48:18.151Z,12.17
2018-05-11T11:50:50.699Z,12.50
2018-05-11T13:30:47.606Z,9.83
2018-05-11T13:33:13.563Z,8.93
2018-05-11T13:35:39.552Z,11.03
2018-05-11T13:38:05.504Z,10.00
2018-05-11T13:40:31.502Z,9.40
2018-05-11T13:42:57.466Z,9.07
2018-05-11T13:45:23.459Z,9.17
2018-05-11T13:47:49.439Z,9.23
2018-05-11T13:50:16.157Z,9.13
2018-05-11T13:52:42.877Z,9.77
2018-05-11T13:55:08.832Z,10.73
2018-05-11T13:57:35.570Z,9.60
2018-05-11T14:00:02.294Z,11.10
2018-05-11T14:02:28.237Z,9.30
2018-05-11T14:04:54.966Z,9.70
2018-05-11T14:07:21.663Z,10.13
2018-05-11T14:09:47.648Z,9.50
2018-05-11T14:12:13.639Z,9.90
2018-05-11T14:14:39.637Z,9.30
2018-05-11T14:17:05.588Z,10.37
2018-05-11T14:19:31.576Z,11.03
2018-05-11T14:21:57.582Z,10.00
2018-05-11T14:24:23.539Z,10.33
2018-05-11T14:26:49.519Z,9.00
2018-05-11T14:29:15.466Z,10.40
2018-05-11T14:31:41.513Z,9.03
2018-05-11T14:34:07.398Z,9.90
2018-05-11T14:36:33.371Z,10.90
2018-05-11T14:38:59.358Z,9.63
2018-05-11T14:41:25.346Z,9.00
2018-05-11T14:43:51.316Z,10.10
2018-05-11T14:46:17.302Z,9.40
2018-05-11T14:48:43.275Z,11.17
2018-05-11T15:21:43.438Z,10.00
2018-05-11T16:16:09.472Z,9.77
2018-05-11T16:18:35.490Z,10.17
2018-05-11T16:21:06.472Z,10.00
2018-05-11T16:26:37.409Z,11.30
2018-05-11T16:29:05.128Z,10.40
2018-05-11T16:31:54.909Z,10.57
2018-05-11T16:37:25.771Z,8.77
2018-05-11T16:40:14.366Z,10.37
2018-05-11T16:42:42.263Z,10.40
2018-05-11T16:45:10.723Z,11.33
2018-05-11T17:21:10.482Z,10.73
2018-05-11T17:23:36.467Z,11.77
2018-05-11T17:26:03.167Z,11.93
2018-05-11T17:28:29.118Z,11.80
2018-05-11T17:30:55.096Z,11.80
2018-05-11T17:33:21.055Z,11.33
2018-05-11T17:35:47.043Z,10.63
2018-05-11T17:38:13.034Z,10.87
2018-05-11T17:40:38.995Z,10.70
2018-05-11T17:43:04.942Z,11.23
2018-05-11T17:45:30.929Z,11.00
2018-05-11T17:47:56.880Z,10.87
2018-05-11T17:50:22.855Z,10.60
2018-05-11T17:52:48.819Z,11.63
2018-05-11T17:55:14.758Z,11.43
2018-05-11T17:57:40.731Z,11.67
2018-05-11T18:00:06.672Z,12.17
2018-05-11T18:02:32.654Z,10.53
2018-05-11T18:04:58.620Z,11.10
2018-05-11T18:07:24.583Z,10.10
2018-05-11T18:09:51.303Z,11.37
2018-05-11T18:12:17.351Z,10.10
2018-05-11T18:14:43.295Z,9.93
2018-05-11T18:17:09.271Z,10.27
2018-05-11T18:19:35.267Z,11.17
2018-05-11T18:22:01.244Z,10.68
2018-05-11T18:24:27.233Z,10.60
2018-05-11T18:26:53.201Z,10.50
2018-05-11T18:29:19.188Z,11.33
2018-05-11T18:31:45.124Z,11.53
2018-05-11T18:34:11.848Z,10.53
2018-05-11T18:36:38.549Z,10.95
2018-05-11T18:39:04.536Z,11.60
2018-05-11T18:41:30.515Z,11.87
2018-05-11T18:43:56.522Z,11.60
2018-05-11T18:46:22.486Z,10.90
2018-05-11T18:48:49.160Z,12.00
2018-05-11T18:51:15.147Z,12.73
2018-05-11T18:53:42.239Z,11.80
2018-05-11T18:56:08.607Z,12.70
2018-05-11T18:58:34.615Z,12.65
2018-05-11T19:01:00.628Z,12.85
2018-05-11T19:03:26.604Z,13.75
2018-05-11T19:05:53.339Z,13.80
2018-05-11T19:08:20.085Z,14.60
2018-05-11T19:10:46.096Z,12.85
2018-05-11T19:13:12.805Z,13.27
2018-05-11T19:15:38.775Z,13.88
2018-05-11T19:18:05.510Z,12.97
2018-05-11T19:20:32.252Z,14.75
2018-05-11T19:22:58.240Z,15.40
2018-05-11T19:25:24.230Z,15.20
2018-05-11T19:27:50.187Z,15.18
2018-05-11T19:30:16.150Z,14.47
2018-05-11T19:32:42.118Z,16.57
2018-05-11T19:35:08.070Z,16.77
2018-05-11T19:37:34.047Z,15.70
2018-05-11T19:40:00.025Z,16.60
2018-05-11T19:42:26.811Z,17.17
2018-05-11T19:44:52.743Z,18.12
2018-05-11T19:47:18.700Z,16.57
2018-05-11T19:49:44.670Z,17.93
2018-05-11T19:52:10.609Z,16.73
2018-05-11T19:54:36.597Z,16.23
2018-05-11T19:57:02.569Z,17.10
2018-05-11T19:59:28.552Z,16.90
2018-05-11T20:01:54.509Z,15.77
2018-05-11T20:04:20.468Z,15.87
2018-05-11T20:06:47.167Z,17.43
2018-05-11T20:09:13.202Z,18.12
2018-05-11T20:11:39.160Z,17.98
2018-05-11T20:14:05.863Z,18.20
2018-05-11T20:16:31.866Z,17.30
2018-05-11T20:18:57.879Z,18.50
2018-05-11T20:21:23.845Z,18.52
2018-05-11T20:23:49.810Z,17.67
2018-05-11T20:26:15.776Z,17.50
2018-05-11T20:28:41.729Z,17.60
2018-05-11T20:31:08.436Z,18.33
2018-05-11T20:33:34.412Z,18.42
2018-05-11T20:36:00.398Z,18.17
2018-05-11T20:38:27.158Z,17.23
2018-05-11T20:40:53.126Z,17.73
2018-05-11T20:43:19.100Z,17.93
2018-05-11T20:45:45.079Z,15.90
2018-05-11T20:48:11.069Z,15.93
2018-05-11T20:50:37.031Z,16.70
2018-05-11T20:53:02.999Z,16.87
2018-05-11T20:55:28.953Z,16.17
2018-05-11T20:57:54.947Z,16.30
2018-05-11T21:00:20.930Z,16.53
2018-05-11T21:02:46.908Z,17.90
2018-05-11T21:05:12.895Z,17.30
2018-05-11T21:07:39.604Z,17.67
2018-05-11T21:10:05.627Z,18.08
2018-05-11T21:12:31.598Z,16.65
2018-05-11T21:14:57.564Z,17.40
2018-05-11T21:17:23.576Z,16.57
2018-05-11T21:19:49.552Z,16.83
2018-05-11T21:22:15.542Z,16.60
2018-05-11T21:24:41.540Z,18.13
2018-05-11T21:27:07.588Z,17.40
2018-05-11T21:29:34.233Z,17.40
2018-05-11T21:32:00.197Z,17.35
2018-05-11T21:34:26.180Z,19.13
2018-05-11T21:36:52.882Z,17.47
2018-05-11T21:39:18.872Z,18.15
2018-05-11T21:41:44.849Z,18.40
2018-05-11T21:44:10.817Z,19.33
2018-05-11T21:46:37.559Z,19.93
2018-05-11T21:49:03.530Z,20.00
2018-05-11T21:51:29.494Z,20.77
2018-05-11T21:53:56.190Z,20.30
2018-05-11T21:56:22.195Z,19.62
2018-05-11T21:58:48.138Z,19.62
2018-05-11T22:01:14.074Z,21.30
2018-05-11T22:03:40.089Z,20.47
2018-05-11T22:06:06.101Z,18.50
2018-05-11T22:08:32.083Z,18.85
2018-05-11T22:10:58.070Z,20.77
2018-05-11T22:13:24.793Z,20.33
2018-05-11T22:15:50.806Z,20.83
2018-05-11T22:18:16.802Z,21.92
2018-05-11T22:20:42.787Z,19.83
2018-05-11T22:23:09.483Z,21.10
2018-05-11T22:25:35.462Z,20.00
2018-05-11T22:28:01.459Z,22.23
2018-05-11T22:30:27.433Z,20.98
2018-05-11T22:32:53.414Z,22.00
2018-05-11T22:35:20.120Z,20.58
2018-05-11T22:37:46.088Z,20.65
2018-05-11T22:40:12.778Z,22.20
2018-05-11T22:42:38.756Z,20.52
2018-05-11T22:45:05.475Z,19.00
2018-05-11T22:47:31.415Z,21.62
2018-05-11T22:49:58.116Z,21.20
2018-05-11T22:52:24.082Z,20.60
2018-05-11T22:54:50.055Z,21.73
2018-05-11T22:57:15.999Z,20.10
2018-05-11T22:59:41.950Z,19.20
2018-05-11T23:02:07.891Z,21.13
2018-05-11T23:04:33.858Z,21.43
2018-05-11T23:06:59.811Z,20.80
2018-05-11T23:09:25.801Z,19.83
2018-05-11T23:11:51.783Z,21.10
2018-05-11T23:14:17.782Z,22.43
2018-05-11T23:16:43.731Z,21.05
2018-05-11T23:19:09.673Z,20.10
2018-05-11T23:21:35.644Z,20.30
2018-05-11T23:24:01.615Z,20.70
2018-05-11T23:26:27.618Z,20.70
2018-05-11T23:28:53.564Z,21.20
2018-05-11T23:31:19.512Z,19.33
2018-05-11T23:33:46.241Z,21.40
2018-05-11T23:36:12.214Z,20.42
2018-05-11T23:38:38.171Z,21.80
2018-05-11T23:41:04.139Z,20.90
2018-05-11T23:43:30.108Z,20.73
2018-05-11T23:45:56.075Z,21.17
2018-05-11T23:48:22.754Z,21.30
2018-05-11T23:50:48.701Z,20.17
2018-05-11T23:53:14.644Z,21.57
2018-05-11T23:55:40.626Z,21.47
2018-05-11T23:58:06.575Z,19.85
